Date,TemperatureHighF,TemperatureAvgF,TemperatureLowF,DewpointHighF,DewpointAvgF,DewpointLowF,HumidityHigh,HumidityAvg,HumidityLow,PressureMaxIn,PressureMinIn,WindSpeedMaxMPH,WindSpeedAvgMPH,GustSpeedMaxMPH,PrecipitationSumIn
2013-1-1,50.0,34.0,20.7,25.6,19.4,15.5,84,58,28,30.32,30.12,1,0,3,0.00
2013-1-2,48.9,32.7,20.8,20.1,14.9,10.7,73,50,31,30.36,30.13,1,0,5,0.00
2013-1-3,35.5,28.7,23.0,28.2,20.4,9.5,88,72,53,30.40,30.19,0,0,4,0.04
2013-1-4,34.1,28.8,24.3,28.1,24.8,20.1,90,85,76,30.46,30.35,1,0,3,0.10
2013-1-5,32.6,24.7,17.1,28.4,21.2,13.6,92,86,83,30.57,30.42,2,0,4,0.01
2013-1-6,49.9,31.5,15.9,27.7,21.7,12.5,89,70,39,30.60,30.12,0,0,2,0.01
2013-1-7,57.6,41.2,29.0,31.2,27.3,21.4,74,59,36,30.13,29.77,1,0,6,0.00
2013-1-8,62.8,45.0,31.2,27.2,21.4,13.6,69,43,19,30.05,29.78,1,0,3,0.00
2013-1-9,62.0,46.1,31.0,29.5,21.3,15.2,54,38,25,30.33,30.05,2,0,9,0.00
2013-1-10,55.6,44.2,28.8,29.5,23.0,15.1,59,44,30,30.14,29.74,4,0,6,0.00
2013-1-11,51.6,44.4,30.0,27.8,19.7,9.4,52,38,29,29.88,29.68,6,2,15,0.00
2013-1-12,43.0,32.0,22.5,9.6,4.9,0.5,52,32,20,30.13,29.86,5,1,10,0.00
2013-1-13,42.4,27.9,12.2,11.2,6.9,2.7,72,43,24,30.29,30.05,1,0,4,0.00
2013-1-14,43.0,28.5,15.7,17.3,7.8,0.4,57,43,21,30.20,30.01,3,0,12,0.00
2013-1-15,30.0,23.5,20.8,-0.8,-2.8,-4.5,33,31,26,30.50,30.41,0,0,0,0.00
2013-1-16,50.9,30.8,15.3,12.5,3.3,-5.9,45,32,21,30.61,30.36,1,0,5,0.00
2013-1-17,61.4,42.4,22.3,23.5,16.7,6.1,52,37,23,30.62,30.34,1,0,3,0.00
2013-1-18,62.9,42.1,25.6,25.7,19.1,13.6,61,42,23,30.44,30.20,0,0,3,0.00
2013-1-19,68.5,43.4,26.2,25.5,16.9,9.9,61,37,18,30.39,30.15,1,0,3,0.00
2013-1-20,68.5,44.1,27.2,22.5,14.9,8.9,50,32,16,30.34,30.07,0,0,4,0.00
2013-1-21,69.3,45.8,30.8,21.9,14.0,8.3,39,29,16,30.31,30.06,0,0,3,0.00
2013-1-22,71.1,47.1,32.1,22.5,13.7,8.6,39,27,13,30.31,30.10,1,0,5,0.00
2013-1-23,74.3,49.0,32.4,25.6,15.3,6.8,37,27,15,30.39,30.15,1,0,4,0.00
2013-1-24,69.2,51.6,33.7,39.0,24.1,12.7,48,35,22,30.32,30.06,1,0,3,0.00
2013-1-25,68.2,53.6,42.0,41.3,36.5,29.7,68,53,36,30.18,30.01,0,0,1,0.00
2013-1-26,66.2,54.9,47.8,49.3,43.7,37.7,83,67,47,30.03,29.81,2,0,4,0.01
2013-1-27,63.7,55.3,45.6,45.8,40.9,36.8,86,60,41,29.96,29.83,5,1,12,0.01
2013-1-28,63.2,50.9,40.8,40.6,35.1,29.6,82,58,33,29.92,29.73,7,2,13,0.00
2013-1-29,46.1,38.8,33.1,31.1,19.5,12.2,69,47,27,30.08,29.74,10,3,16,0.00
2013-1-30,54.0,38.2,23.7,21.8,16.0,10.2,75,45,19,30.35,30.06,2,0,5,0.00
2013-1-31,59.2,41.2,24.4,23.8,17.0,10.0,57,39,24,30.38,30.18,1,0,3,0.00
2013-2-1,67.9,45.5,26.2,24.6,17.9,11.1,56,36,19,30.32,30.10,0,0,2,0.00
2013-2-2,69.3,47.4,30.3,24.8,17.2,11.3,50,32,16,30.39,30.16,1,0,4,0.00
2013-2-3,64.1,49.0,36.6,38.3,20.0,11.2,56,33,19,30.20,29.89,3,0,13,0.00
2013-2-4,67.4,52.1,38.8,34.1,28.8,23.1,58,42,27,30.01,29.84,1,0,4,0.00
2013-2-5,72.9,51.3,35.9,29.6,24.2,19.9,60,37,18,30.06,29.83,2,0,3,0.00
2013-2-6,67.1,51.9,36.8,33.4,29.0,23.3,65,43,26,29.98,29.77,3,0,5,0.00
2013-2-7,69.4,52.1,35.2,33.5,26.8,21.1,69,41,20,30.08,29.86,1,0,3,0.00
2013-2-8,67.8,53.8,39.4,29.6,22.9,12.9,50,32,18,30.02,29.69,6,1,10,0.00
2013-2-9,57.6,47.3,36.8,26.1,17.8,12.8,42,31,22,29.91,29.61,9,3,14,0.00
2013-2-10,54.8,41.3,28.9,19.2,15.0,9.6,57,36,20,30.04,29.88,2,0,5,0.00
2013-2-11,59.0,41.8,24.2,26.8,13.9,5.1,60,33,19,30.08,29.83,5,1,11,0.00
2013-2-12,52.6,41.4,29.9,28.6,16.6,6.3,81,41,18,30.18,29.89,4,0,10,0.00
2013-2-13,59.2,40.4,23.3,18.0,12.0,7.3,55,33,18,30.26,30.03,1,0,3,0.00
2013-2-14,64.6,43.8,25.6,22.7,14.5,3.1,49,32,19,30.20,29.97,1,0,3,0.00
2013-2-15,60.1,43.8,30.6,26.6,18.0,10.3,55,37,19,30.35,30.09,2,0,6,0.00
2013-2-16,65.5,44.9,25.8,20.4,13.4,7.7,53,31,15,30.46,30.10,1,0,4,0.00
2013-2-17,68.5,48.0,26.0,17.0,11.2,4.2,41,24,12,30.13,29.74,5,0,11,0.00
2013-2-18,69.4,53.4,40.2,18.1,12.8,8.8,30,20,13,29.99,29.76,2,0,5,0.00
2013-2-19,59.0,46.4,31.9,43.2,22.2,0.0,86,45,16,30.01,29.71,6,1,10,0.05
2013-2-20,59.4,46.3,32.0,40.9,29.0,20.1,92,57,23,29.73,29.46,10,3,12,0.00
2013-2-21,51.4,38.3,28.3,24.5,21.5,18.0,73,53,31,30.00,29.69,5,2,10,0.00
2013-2-23,59.0,48.1,42.1,23.2,20.2,18.9,41,33,24,29.83,29.72,2,0,12,0.00
2013-2-24,55.1,41.8,30.1,24.8,18.5,8.7,61,40,24,29.92,29.56,10,2,18,0.00
2013-2-25,56.9,39.3,22.5,17.9,13.0,7.7,63,37,18,30.19,29.92,2,0,9,0.00
2013-2-26,64.6,44.3,24.9,21.9,10.8,3.0,50,28,12,30.02,29.74,8,1,15,0.00
2013-2-27,56.9,40.8,23.5,9.9,4.7,-1.6,35,23,14,30.28,30.00,1,0,4,0.00
2013-2-28,61.6,39.3,23.0,15.8,7.1,-2.7,38,28,14,30.38,30.20,2,0,5,0.00
2013-3-1,69.3,52.9,28.6,23.0,14.5,0.4,31,22,16,30.38,30.18,3,0,9,0.00
2013-3-2,76.0,54.4,31.6,26.4,17.8,6.7,38,25,15,30.40,30.03,1,0,4,0.00
2013-3-3,78.2,59.8,37.7,22.5,16.9,13.1,39,21,9,30.10,29.76,7,1,12,0.00
2013-3-4,76.4,62.5,49.9,29.0,23.2,18.0,32,23,15,29.91,29.56,9,2,17,0.00
2013-3-5,69.7,53.3,37.1,29.2,22.7,15.1,46,31,21,30.20,29.90,2,0,5,0.00
2013-3-6,76.9,56.2,43.6,31.8,25.4,19.7,42,32,19,30.11,29.84,2,0,6,0.00
2013-3-7,78.2,65.6,44.7,31.2,26.2,22.7,44,24,13,29.93,29.74,4,0,6,0.00
2013-3-8,65.9,58.8,50.2,45.7,32.4,23.0,60,37,27,29.84,29.64,11,2,14,0.00
2013-3-9,55.0,45.9,36.1,34.4,26.0,20.3,62,47,27,29.95,29.71,7,2,15,0.00
2013-3-10,58.1,43.1,27.3,28.2,22.8,18.0,75,48,27,30.15,29.95,1,0,5,0.00
2013-3-11,69.6,50.0,30.2,27.3,20.5,14.6,57,34,18,30.22,29.95,1,0,3,0.00
2013-3-12,76.7,57.0,34.3,27.6,20.2,10.7,39,25,14,30.10,29.92,1,0,7,0.00
2013-3-13,77.9,57.8,36.7,31.5,21.6,15.1,44,27,13,30.26,30.05,1,0,6,0.00
2013-3-14,86.1,63.5,40.7,26.8,18.5,10.9,32,19,10,30.21,29.95,1,0,2,0.00
2013-3-15,87.1,65.1,42.9,26.2,18.0,10.3,28,17,10,30.07,29.72,2,0,3,0.00
2013-3-16,84.9,66.4,44.6,27.9,19.0,9.4,28,17,10,29.83,29.55,7,1,11,0.00
2013-3-17,78.2,63.3,44.7,30.6,21.8,15.4,35,21,13,29.76,29.56,10,2,16,0.00
2013-3-18,76.9,62.9,46.3,24.6,18.3,12.8,30,19,11,29.88,29.68,4,1,12,0.00
2013-3-19,78.0,62.3,47.6,29.1,21.7,12.8,26,21,16,29.91,29.74,4,0,9,0.00
2013-3-20,71.0,59.3,43.6,32.0,26.7,20.4,41,29,21,30.10,29.73,2,0,9,0.00
2013-3-21,75.1,62.7,51.2,32.5,28.1,24.1,39,28,19,29.73,29.48,7,1,18,0.00
2013-3-22,76.4,63.4,53.7,32.8,28.2,25.9,34,27,16,29.66,29.45,7,2,15,0.00
2013-3-24,63.4,51.6,29.8,11.4,4.2,-8.5,19,15,11,30.10,29.82,1,0,10,0.00
2013-3-25,66.2,50.3,34.8,15.4,8.5,1.2,26,19,13,30.11,29.86,1,0,3,0.00
2013-3-26,69.8,53.0,32.6,22.8,16.1,6.1,34,24,16,30.19,29.85,3,0,6,0.00
2013-3-27,78.0,60.9,42.5,27.3,22.1,16.9,39,24,15,29.98,29.83,2,0,6,0.00
2013-3-28,82.6,66.6,49.2,34.2,25.5,19.1,31,22,15,29.97,29.79,1,0,6,0.00
2013-3-29,84.9,68.3,51.9,32.1,24.1,18.4,29,20,12,29.99,29.79,3,0,5,0.00
2013-3-30,82.1,67.5,50.1,27.9,22.1,15.1,26,18,12,29.97,29.75,4,0,9,0.00
2013-3-31,83.9,69.2,52.4,35.1,29.2,23.6,37,23,16,29.88,29.73,1,0,5,0.00
2013-4-1,83.4,68.1,51.7,32.0,25.7,21.3,32,22,12,29.86,29.65,3,0,6,0.00
2013-4-2,79.8,67.9,51.2,31.9,22.7,12.8,32,19,12,29.77,29.60,7,2,13,0.00
2013-4-3,76.4,59.3,42.2,36.2,28.2,12.9,52,32,18,29.96,29.71,1,0,5,0.00
2013-4-4,81.3,63.8,42.9,34.1,25.2,18.9,43,25,13,30.08,29.86,1,0,6,0.00
2013-4-5,85.2,68.6,51.7,30.2,22.9,17.0,33,19,9,29.93,29.62,4,0,10,0.00
2013-4-6,83.0,67.8,52.6,35.1,27.4,22.4,34,23,13,29.81,29.64,4,1,10,0.00
2013-4-7,83.5,68.7,53.4,35.5,27.2,21.3,29,22,15,29.75,29.53,5,1,11,0.00
2013-4-8,82.3,68.8,55.1,35.5,29.2,23.5,32,24,14,29.58,29.25,8,2,15,0.00
2013-4-9,64.8,56.5,48.3,35.7,29.1,20.7,59,36,21,29.76,29.25,8,3,15,0.00
2013-4-10,65.7,53.4,40.5,30.9,25.6,21.1,55,36,20,29.87,29.73,5,1,12,0.00
2013-4-11,76.4,58.1,35.9,27.8,21.5,16.6,46,27,14,29.92,29.59,1,0,6,0.00
2013-4-12,77.9,63.8,48.0,35.1,25.3,20.4,38,24,17,29.74,29.60,0,0,1,0.00
2013-4-13,83.3,68.4,51.4,34.1,25.7,19.9,30,21,13,29.70,29.48,6,0,16,0.00
2013-4-14,81.3,67.9,53.9,34.0,27.1,22.1,31,22,16,29.63,29.46,7,2,16,0.00
2013-4-15,83.0,69.7,56.3,34.5,29.2,24.4,40,23,14,29.64,29.50,7,1,13,0.00
2013-4-16,85.6,69.4,50.4,31.1,23.7,18.3,35,19,10,29.71,29.50,6,1,11,0.00
2013-4-17,78.4,63.5,46.2,30.4,23.9,17.4,42,23,13,29.81,29.45,10,3,17,0.00
2013-4-18,68.5,52.5,37.5,23.8,17.9,5.3,49,28,15,30.08,29.79,2,0,14,0.00
2013-4-19,68.7,52.3,32.0,14.1,6.2,-0.1,27,16,9,30.27,29.91,1,0,4,0.00
2013-4-20,82.1,62.4,37.8,21.3,13.3,2.4,29,15,9,29.94,29.67,5,1,10,0.00
2013-4-21,84.2,67.6,47.0,28.9,19.3,8.9,26,16,11,29.96,29.72,3,0,6,0.00
2013-4-22,88.3,70.4,49.9,28.5,20.4,13.4,28,16,9,29.87,29.59,5,1,12,0.00
2013-4-23,85.7,68.0,56.2,26.4,20.9,16.1,26,17,11,29.75,29.55,7,1,14,0.00
2013-4-24,76.2,62.4,44.2,33.1,27.5,21.5,42,28,17,30.00,29.74,2,0,6,0.00
2013-4-25,83.7,69.1,54.6,40.6,31.4,18.3,44,27,11,29.91,29.63,4,1,10,0.00
2013-4-26,84.8,68.8,51.1,32.0,23.8,13.7,32,19,11,29.95,29.79,2,0,4,0.00
2013-4-27,87.8,70.1,51.1,34.7,23.9,14.9,30,18,11,29.99,29.74,1,0,5,0.00
2013-4-28,89.7,71.5,51.4,40.0,25.8,15.8,28,19,11,29.86,29.59,1,0,3,0.00
2013-4-29,93.5,75.4,58.8,33.0,24.8,16.2,27,17,8,29.68,29.45,1,0,3,0.00
2013-4-30,94.8,77.0,54.7,34.9,23.2,14.5,26,14,9,29.62,29.46,4,1,11,0.00
2013-5-1,88.7,73.2,57.7,33.0,24.9,17.9,31,17,10,29.73,29.61,2,0,6,0.00
2013-5-2,74.4,60.8,47.3,32.1,25.4,19.3,45,27,15,30.25,29.94,1,0,6,0.00
2013-5-3,70.1,55.4,39.8,24.7,20.2,12.5,44,27,16,30.34,29.90,2,0,5,0.00
2013-5-4,82.4,64.1,40.6,31.5,21.1,7.6,29,20,14,29.90,29.67,1,0,5,0.00
2013-5-5,83.5,73.0,60.5,36.6,29.0,21.2,29,20,16,29.84,29.66,3,0,12,0.00
2013-5-6,81.3,70.8,61.1,41.3,35.2,26.8,44,28,21,29.81,29.64,3,0,10,0.00
2013-5-7,81.3,69.2,56.3,38.1,32.0,26.4,37,26,17,29.84,29.65,2,0,9,0.00
2013-5-8,79.8,68.0,53.3,35.9,29.2,22.6,37,24,15,29.84,29.70,3,1,12,0.00
2013-5-9,82.6,68.1,53.5,38.7,28.3,20.3,33,23,15,29.83,29.69,2,0,7,0.00
2013-5-10,74.8,67.4,60.0,49.8,38.2,32.2,54,35,27,29.92,29.75,3,0,7,0.01
2013-5-12,80.2,79.7,78.1,37.5,35.5,33.7,22,20,20,29.93,29.91,1,0,1,0.00
2013-5-13,85.3,72.5,57.0,43.1,36.3,21.1,45,29,10,30.06,29.87,2,0,6,0.00
2013-5-14,86.1,72.9,58.3,45.5,38.5,33.3,46,30,20,29.92,29.67,1,0,6,0.00
2013-5-15,93.8,74.6,56.0,44.0,36.1,28.7,46,26,16,29.82,29.58,4,0,11,0.00
2013-5-16,93.9,79.1,61.1,40.3,32.5,25.6,36,20,11,29.75,29.54,3,0,7,0.00
2013-5-17,94.7,78.4,58.5,38.8,30.7,22.1,27,18,12,29.72,29.54,1,0,9,0.00
2013-5-18,90.4,76.2,60.3,39.6,27.5,21.0,27,17,10,29.76,29.56,4,0,9,0.00
2013-5-19,88.1,73.9,56.7,37.5,29.1,21.6,31,20,13,29.74,29.53,5,1,13,0.00
2013-5-20,89.0,74.9,57.0,41.0,31.0,24.0,33,21,12,29.73,29.52,6,1,11,0.00
2013-5-21,88.1,73.2,54.9,38.0,27.9,16.0,35,20,10,29.80,29.59,2,0,10,0.00
2013-5-22,95.1,78.1,59.7,36.4,26.1,14.7,39,15,10,29.68,29.50,1,0,6,0.00
2013-5-23,99.5,82.1,64.5,46.5,31.8,23.5,36,17,11,29.67,29.49,2,0,6,0.00
2013-5-24,95.3,80.7,61.8,50.2,42.7,30.6,57,29,14,29.76,29.58,1,0,9,0.00
2013-5-25,97.3,83.1,70.0,55.6,42.1,28.0,55,28,11,29.74,29.55,2,0,7,0.00
2013-5-26,96.0,80.7,63.5,35.3,27.2,20.5,20,15,10,29.77,29.59,3,0,9,0.00
2013-5-27,94.1,78.5,59.0,34.2,23.7,15.2,21,14,9,29.72,29.50,2,0,6,0.00
2013-5-28,93.4,78.4,58.2,31.6,23.2,16.9,28,14,8,29.58,29.35,4,0,16,0.00
2013-5-29,88.4,77.1,62.0,39.6,31.4,19.6,26,19,13,29.55,29.38,4,1,16,0.00
2013-5-30,73.3,68.0,62.1,37.0,33.6,31.2,34,28,23,29.65,29.46,0,0,1,0.00
2013-5-31,82.1,81.8,81.2,41.6,41.2,39.5,24,24,22,29.50,29.48,0,0,1,0.00
2013-6-1,99.8,84.4,63.7,40.7,31.8,18.1,25,16,9,29.68,29.49,1,0,5,0.00
2013-6-2,97.0,83.3,68.1,56.0,48.9,39.6,45,31,21,29.71,29.47,8,1,12,0.00
2013-6-3,98.7,82.5,67.9,55.2,45.3,26.6,57,32,10,29.71,29.49,7,0,7,0.00
2013-6-4,100.5,83.4,60.2,43.8,33.8,20.2,25,17,12,29.69,29.50,2,0,6,0.00
2013-6-5,99.2,84.0,65.6,44.6,34.5,23.2,42,19,9,29.66,29.49,2,0,6,0.00
2013-6-6,96.1,81.1,62.1,49.7,40.7,21.8,44,25,15,29.68,29.54,3,0,8,0.00
2013-6-7,94.1,80.0,68.7,57.2,48.5,40.6,55,34,23,29.73,29.53,2,0,4,0.00
2013-6-8,99.8,84.1,66.7,53.4,45.2,32.0,51,29,13,29.65,29.38,2,0,7,0.00
2013-6-9,102.2,88.0,68.2,55.1,46.5,31.4,43,25,16,29.58,29.43,2,0,10,0.00
2013-6-10,105.3,91.0,71.9,55.2,49.4,39.9,47,26,14,29.66,29.48,2,0,6,0.00
2013-6-11,107.4,92.0,73.9,53.1,44.5,37.8,38,21,12,29.65,29.47,1,0,3,0.00
2013-6-12,107.4,91.9,71.5,52.4,42.9,34.9,35,19,12,29.66,29.49,2,0,7,0.00
2013-6-13,103.2,87.2,72.5,56.2,50.6,44.6,51,31,15,29.67,29.52,1,0,4,0.00
2013-6-14,98.6,83.3,69.6,61.7,56.6,51.6,68,42,23,29.67,29.49,2,0,6,0.08
2013-6-15,101.3,85.1,67.1,61.1,53.3,45.6,72,38,16,29.79,29.55,3,0,4,0.21
2013-6-16,101.1,87.5,72.1,54.7,49.8,45.4,43,29,18,29.73,29.55,2,0,4,0.00
2013-6-17,102.6,85.9,70.2,62.8,52.4,47.9,50,33,18,29.69,29.50,2,0,9,0.01
2013-6-18,99.6,85.5,68.3,59.0,53.2,41.7,63,36,18,29.71,29.50,2,0,5,0.00
2013-6-19,102.8,89.4,75.8,59.3,49.3,36.2,52,29,11,29.58,29.41,2,0,7,0.00
2013-6-20,102.3,88.8,75.7,51.3,48.0,36.7,40,26,15,29.63,29.47,3,0,7,0.00
2013-6-21,101.5,87.0,72.4,56.9,47.3,31.9,47,28,14,29.68,29.50,3,0,14,0.00
2013-6-22,100.5,86.6,71.5,47.7,35.7,23.8,21,17,14,29.67,29.48,5,0,10,0.00
2013-6-23,100.8,85.7,69.9,51.2,38.4,25.2,42,20,12,29.64,29.45,2,0,9,0.00
2013-6-24,99.4,86.2,69.9,47.5,40.8,32.2,31,21,15,29.66,29.48,2,0,5,0.00
2013-6-25,100.8,86.7,71.0,45.5,36.4,25.8,27,18,10,29.70,29.56,3,0,5,0.00
2013-6-26,105.1,86.0,63.7,38.6,30.4,21.2,29,14,8,29.78,29.59,2,0,10,0.00
2013-6-27,110.9,89.5,65.2,43.6,30.7,18.0,20,13,8,29.76,29.56,1,0,3,0.00
2013-6-28,103.4,91.2,83.9,58.9,46.4,40.8,33,22,15,29.82,29.57,3,0,9,0.00
2013-6-29,104.8,90.0,74.1,54.7,47.2,40.6,38,24,14,29.78,29.55,2,0,6,0.00
2013-6-30,101.7,87.7,69.7,62.4,52.6,47.5,71,32,21,29.76,29.51,5,0,12,0.08
2013-7-1,91.3,75.2,64.6,63.0,58.7,54.5,83,60,32,29.92,29.73,2,0,4,0.21
2013-7-2,91.1,76.9,64.2,59.1,55.2,49.5,79,51,29,29.95,29.73,5,0,6,0.02
2013-7-3,94.5,78.3,64.4,60.3,56.1,50.1,79,51,26,29.84,29.58,3,0,4,0.11
2013-7-4,97.9,81.3,66.1,59.4,56.0,53.1,77,46,23,29.71,29.50,1,0,3,0.01
2013-7-5,100.5,86.5,67.7,59.4,53.7,45.6,62,36,17,29.65,29.45,1,0,5,0.00
2013-7-6,102.0,86.8,71.6,59.8,54.9,51.6,53,35,22,29.60,29.44,5,0,6,0.00
2013-7-9,103.6,94.3,85.8,60.9,55.2,50.1,36,27,23,29.65,29.58,2,0,5,0.00
2013-7-10,99.6,88.3,75.5,63.8,58.2,54.1,56,38,26,29.76,29.57,1,0,5,0.00
2013-7-11,99.4,86.8,74.1,62.1,57.7,53.2,60,38,26,29.73,29.57,2,0,7,0.00
2013-7-12,100.7,85.0,74.4,66.7,58.2,53.5,61,41,25,29.73,29.56,3,0,5,0.08
2013-7-13,101.4,86.1,69.2,61.4,56.6,48.3,68,40,22,29.73,29.55,1,0,2,0.00
2013-7-14,102.4,88.8,71.9,64.1,54.0,48.2,72,32,22,29.69,29.46,4,0,14,0.02
2013-7-15,87.2,76.0,70.2,63.5,59.1,51.3,71,57,41,29.80,29.56,1,0,6,0.22
2013-7-16,89.3,75.4,65.7,56.2,53.6,50.0,68,49,28,29.91,29.76,1,0,3,0.00
2013-7-17,91.9,77.2,66.4,58.1,54.7,50.9,64,47,28,29.97,29.84,3,0,7,0.00
2013-7-18,75.7,68.4,63.9,65.8,62.2,56.6,90,81,60,29.98,29.85,0,0,3,0.43
2013-7-19,89.0,75.1,65.2,65.7,62.4,59.8,89,67,41,29.92,29.68,2,0,6,0.00
2013-7-20,91.3,77.3,67.5,67.0,62.5,57.2,84,62,38,29.75,29.56,4,0,4,0.00
2013-7-21,97.4,80.9,67.3,64.7,61.1,56.5,83,55,27,29.73,29.52,1,0,5,0.00
2013-7-22,98.0,81.1,68.2,66.6,62.5,59.1,80,56,29,29.72,29.55,3,0,5,0.00
2013-7-23,98.2,79.5,68.9,66.4,62.8,58.3,85,60,30,29.74,29.54,4,0,4,0.09
2013-7-24,93.8,79.5,67.5,68.2,64.5,60.7,89,64,35,29.83,29.62,8,0,8,0.60
2013-7-25,88.0,76.6,66.6,66.7,64.4,62.2,90,69,45,29.93,29.76,1,0,3,0.05
2013-7-26,98.3,80.6,71.7,67.8,65.2,59.2,80,62,34,29.87,29.73,3,0,4,0.01